createdAt,value
2019-03-13T00:00:41.938Z,3.67
2019-03-13T00:03:11.090Z,3.43
2019-03-13T00:05:39.923Z,3.40
2019-03-13T00:08:08.720Z,3.36
2019-03-13T00:10:37.266Z,3.33
2019-03-13T00:13:06.034Z,3.33
2019-03-13T00:15:34.659Z,3.40
2019-03-13T00:18:03.253Z,3.39
2019-03-13T00:20:31.785Z,3.36
2019-03-13T00:23:00.292Z,3.65
2019-03-13T00:25:28.889Z,3.74
2019-03-13T00:27:57.470Z,3.78
2019-03-13T00:30:26.160Z,3.53
2019-03-13T00:32:54.700Z,3.16
2019-03-13T00:35:23.351Z,3.58
2019-03-13T00:37:51.946Z,3.76
2019-03-13T00:40:20.454Z,3.72
2019-03-13T00:42:48.994Z,3.61
2019-03-13T00:45:17.515Z,3.55
2019-03-13T00:47:46.329Z,3.89
2019-03-13T00:50:26.949Z,4.04
2019-03-13T00:52:55.470Z,3.68
2019-03-13T00:55:24.015Z,3.77
2019-03-13T00:57:52.612Z,3.85
2019-03-13T01:00:39.451Z,3.49
2019-03-13T01:03:09.671Z,3.82
2019-03-13T01:05:56.527Z,3.72
2019-03-13T01:08:25.050Z,3.84
2019-03-13T01:10:53.663Z,3.69
2019-03-13T01:13:22.328Z,3.71
2019-03-13T01:15:50.850Z,3.81
2019-03-13T01:18:19.379Z,3.81
2019-03-13T01:20:47.921Z,3.90
2019-03-13T01:23:16.432Z,3.99
2019-03-13T01:25:45.043Z,3.78
2019-03-13T01:28:13.720Z,3.97
2019-03-13T01:30:46.708Z,3.89
2019-03-13T01:33:16.873Z,4.06
2019-03-13T01:35:47.032Z,4.04
2019-03-13T01:38:15.627Z,4.08
2019-03-13T01:40:44.201Z,4.03
2019-03-13T01:43:12.810Z,4.04
2019-03-13T01:45:41.474Z,3.99
2019-03-13T01:48:10.053Z,4.11
2019-03-13T01:50:38.557Z,4.03
2019-03-13T01:53:07.067Z,3.96
2019-03-13T01:55:35.678Z,4.27
2019-03-13T01:58:04.406Z,4.29
2019-03-13T02:00:33.347Z,4.21
2019-03-13T02:03:01.960Z,4.12
2019-03-13T02:05:30.470Z,4.25
2019-03-13T02:07:59.083Z,4.22
2019-03-13T02:10:27.593Z,4.30
2019-03-13T02:12:56.130Z,4.21
2019-03-13T02:15:24.713Z,4.27
2019-03-13T02:17:53.229Z,4.37
2019-03-13T02:20:21.741Z,4.80
2019-03-13T02:22:50.351Z,4.59
2019-03-13T02:25:19.098Z,4.55
2019-03-13T02:27:47.679Z,4.51
2019-03-13T02:30:21.548Z,4.52
2019-03-13T02:32:50.277Z,4.67
2019-03-13T02:35:18.896Z,4.64
2019-03-13T02:37:47.411Z,4.76
2019-03-13T02:40:16.591Z,4.92
2019-03-13T02:42:45.114Z,4.97
2019-03-13T02:45:15.176Z,5.25
2019-03-13T02:47:43.701Z,4.86
2019-03-13T02:50:16.606Z,4.94
2019-03-13T02:52:45.180Z,4.83
2019-03-13T02:55:13.861Z,4.86
2019-03-13T02:57:42.441Z,4.92
2019-03-13T03:00:15.374Z,4.97
2019-03-13T03:02:45.889Z,4.75
2019-03-13T03:05:14.540Z,4.41
2019-03-13T03:07:43.046Z,4.66
2019-03-13T03:10:13.010Z,5.04
2019-03-13T03:12:41.681Z,4.94
2019-03-13T03:15:18.093Z,5.12
2019-03-13T03:17:46.677Z,5.12
2019-03-13T03:20:17.726Z,4.55
2019-03-13T03:22:46.347Z,4.84
2019-03-13T03:25:16.413Z,4.85
2019-03-13T03:27:44.987Z,4.73
2019-03-13T03:30:19.024Z,4.36
2019-03-13T03:32:47.546Z,4.25
2019-03-13T03:35:16.238Z,4.37
2019-03-13T03:37:44.834Z,4.25
2019-03-13T03:40:21.338Z,4.04
2019-03-13T03:42:46.429Z,4.07
2019-03-13T03:45:15.089Z,3.87
2019-03-13T03:47:43.676Z,3.98
2019-03-13T03:50:13.804Z,4.33
2019-03-13T03:52:42.266Z,4.10
2019-03-13T03:55:12.106Z,3.95
2019-03-13T03:57:40.627Z,4.18
2019-03-13T04:00:15.032Z,4.54
2019-03-13T04:02:43.483Z,4.49
2019-03-13T04:05:12.193Z,5.33
2019-03-13T04:07:40.729Z,5.11
2019-03-13T04:10:13.459Z,4.67
2019-03-13T04:12:41.988Z,4.38
2019-03-13T04:15:12.051Z,4.39
2019-03-13T04:17:40.610Z,4.52
2019-03-13T04:20:14.187Z,4.38
2019-03-13T04:22:42.782Z,4.11
2019-03-13T04:25:23.489Z,4.51
2019-03-13T04:27:52.021Z,4.42
2019-03-13T04:30:20.477Z,4.20
2019-03-13T04:32:48.965Z,4.70
2019-03-13T04:35:18.195Z,4.78
2019-03-13T04:37:46.677Z,4.79
2019-03-13T04:40:15.712Z,4.57
2019-03-13T04:42:44.262Z,4.71
2019-03-13T04:45:13.278Z,4.75
2019-03-13T04:47:41.758Z,5.05
2019-03-13T04:50:46.846Z,5.27
2019-03-13T04:53:15.328Z,5.49
2019-03-13T04:55:43.821Z,5.19
2019-03-13T04:58:12.321Z,5.22
2019-03-13T05:00:40.792Z,5.51
2019-03-13T05:03:09.454Z,5.13
2019-03-13T05:05:44.993Z,5.39
2019-03-13T05:08:19.076Z,5.56
2019-03-13T05:10:47.543Z,5.85
2019-03-13T05:13:16.002Z,5.97
2019-03-13T05:15:44.503Z,5.88
2019-03-13T05:18:13.084Z,5.87
2019-03-13T05:20:41.560Z,5.95
2019-03-13T05:23:10.057Z,6.12
2019-03-13T05:25:38.523Z,6.41
2019-03-13T05:28:07.132Z,6.45
2019-03-13T05:30:35.583Z,7.17
2019-03-13T05:33:04.038Z,7.08
2019-03-13T05:35:32.529Z,6.70
2019-03-13T05:38:00.991Z,6.82
2019-03-13T05:40:29.477Z,6.38
2019-03-13T05:42:57.993Z,6.29
2019-03-13T05:45:26.458Z,6.44
2019-03-13T05:47:54.973Z,6.19
2019-03-13T05:50:23.430Z,6.25
2019-03-13T05:52:51.899Z,6.16
2019-03-13T05:55:20.386Z,5.86
2019-03-13T05:57:48.850Z,6.27
2019-03-13T06:00:18.967Z,6.25
2019-03-13T06:02:48.117Z,6.28
2019-03-13T06:05:16.659Z,6.42
2019-03-13T06:07:45.122Z,6.48
2019-03-13T06:10:14.927Z,6.10
2019-03-13T06:12:43.422Z,6.05
2019-03-13T06:15:13.627Z,6.32
2019-03-13T06:17:42.194Z,6.14
2019-03-13T06:20:13.498Z,6.31
2019-03-13T06:22:41.995Z,6.34
2019-03-13T06:25:12.463Z,6.72
2019-03-13T06:27:40.944Z,6.87
2019-03-13T06:30:18.227Z,6.84
2019-03-13T06:32:46.773Z,6.63
2019-03-13T06:35:15.505Z,5.95
2019-03-13T06:37:44.151Z,5.60
2019-03-13T06:40:14.355Z,5.46
2019-03-13T06:42:42.926Z,5.70
2019-03-13T06:45:13.426Z,5.98
2019-03-13T06:47:42.017Z,6.34
2019-03-13T06:50:13.462Z,6.31
2019-03-13T06:52:41.994Z,6.31
2019-03-13T06:55:10.859Z,6.23
2019-03-13T06:57:39.329Z,5.67
2019-03-13T07:00:39.423Z,5.72
2019-03-13T07:03:27.884Z,5.39
2019-03-13T07:05:58.002Z,5.34
2019-03-13T07:08:39.872Z,5.25
2019-03-13T07:11:22.236Z,5.12
2019-03-13T07:14:08.432Z,5.06
2019-03-13T07:16:54.787Z,5.10
2019-03-13T07:19:24.897Z,5.17
2019-03-13T07:21:57.955Z,5.04
2019-03-13T07:24:31.040Z,5.05
2019-03-13T07:27:01.175Z,4.99
2019-03-13T07:29:43.095Z,4.82
2019-03-13T07:32:13.208Z,5.01
2019-03-13T07:34:46.032Z,5.10
2019-03-13T07:37:18.590Z,5.13
2019-03-13T07:40:05.095Z,4.97
2019-03-13T07:42:35.195Z,5.00
2019-03-13T07:45:06.548Z,4.87
2019-03-13T07:47:45.923Z,4.96
2019-03-13T07:50:19.282Z,5.09
2019-03-13T07:52:55.099Z,4.94
2019-03-13T07:55:40.188Z,5.15
2019-03-13T07:58:10.335Z,5.30
2019-03-13T08:00:40.464Z,5.05
2019-03-13T08:03:19.576Z,5.11
2019-03-13T08:05:49.685Z,4.98
2019-03-13T08:08:19.825Z,5.10
2019-03-13T08:10:52.356Z,4.91
2019-03-13T08:13:40.560Z,5.18
2019-03-13T08:16:25.688Z,5.37
2019-03-13T08:19:01.699Z,5.18
2019-03-13T08:21:47.692Z,5.16
2019-03-13T08:24:35.904Z,5.21
2019-03-13T08:27:24.446Z,5.26
2019-03-13T08:30:12.938Z,5.19
2019-03-13T08:32:45.873Z,5.06
2019-03-13T08:35:24.655Z,4.86
2019-03-13T08:37:54.762Z,5.29
2019-03-13T08:40:36.385Z,5.06
2019-03-13T08:43:22.694Z,5.51
2019-03-13T08:46:08.994Z,5.05
2019-03-13T08:48:54.509Z,5.20
2019-03-13T08:51:36.387Z,5.22
2019-03-13T08:54:23.252Z,5.18
2019-03-13T08:57:08.428Z,5.14
2019-03-13T08:59:54.825Z,5.14
2019-03-13T09:02:37.438Z,4.94
2019-03-13T09:05:08.784Z,4.84
2019-03-13T09:07:38.893Z,4.85
2019-03-13T09:10:14.689Z,4.79
2019-03-13T09:12:44.794Z,4.84
2019-03-13T09:15:27.199Z,4.70
2019-03-13T09:18:02.882Z,4.42
2019-03-13T09:20:35.723Z,4.51
2019-03-13T09:23:14.564Z,4.31
2019-03-13T09:25:56.658Z,4.28
2019-03-13T09:28:29.432Z,4.33
2019-03-13T09:31:02.006Z,4.22
2019-03-13T09:33:34.814Z,4.13
2019-03-13T09:36:04.946Z,4.26
2019-03-13T09:38:38.209Z,4.35
2019-03-13T09:41:13.015Z,4.33
2019-03-13T09:43:45.800Z,4.26
2019-03-13T09:46:21.709Z,4.08
2019-03-13T09:48:51.815Z,4.23
2019-03-13T09:51:21.960Z,4.39
2019-03-13T09:53:57.557Z,4.20
2019-03-13T09:56:27.658Z,4.31
2019-03-13T09:59:16.075Z,4.54
2019-03-13T10:01:48.873Z,4.63
2019-03-13T10:04:35.483Z,4.47
2019-03-13T10:07:11.320Z,4.67
2019-03-13T10:09:41.462Z,5.08
2019-03-13T10:12:26.692Z,5.16
2019-03-13T10:15:13.029Z,5.55
2019-03-13T10:17:59.424Z,5.91
2019-03-13T10:20:29.537Z,6.15
2019-03-13T10:23:02.619Z,6.16
2019-03-13T10:25:42.049Z,5.79
2019-03-13T10:28:18.156Z,5.79
2019-03-13T10:31:04.663Z,5.71
2019-03-13T10:33:34.787Z,6.47
2019-03-13T10:36:04.893Z,6.94
2019-03-13T10:38:41.090Z,7.04
2019-03-13T10:41:27.140Z,7.12
2019-03-13T10:43:57.273Z,6.90
2019-03-13T10:46:45.153Z,7.03
2019-03-13T10:49:15.322Z,6.92
2019-03-13T10:51:45.457Z,6.82
2019-03-13T10:54:24.722Z,6.88
2019-03-13T10:57:03.729Z,7.56
2019-03-13T10:59:36.506Z,7.90
2019-03-13T11:02:10.656Z,8.41
2019-03-13T11:04:40.938Z,8.22
2019-03-13T11:07:11.046Z,8.29
2019-03-13T11:09:41.159Z,7.96
2019-03-13T11:12:20.020Z,7.89
2019-03-13T11:14:50.155Z,8.07
2019-03-13T11:17:26.193Z,7.68
2019-03-13T11:20:11.166Z,8.08
2019-03-13T11:22:41.304Z,8.35
2019-03-13T11:25:11.545Z,8.49
2019-03-13T11:27:44.358Z,8.42
2019-03-13T11:30:32.759Z,8.28
2019-03-13T11:33:05.868Z,8.18
2019-03-13T11:35:35.974Z,8.97
2019-03-13T11:38:06.349Z,9.25
2019-03-13T11:40:44.994Z,9.30
2019-03-13T11:43:18.221Z,9.11
2019-03-13T11:45:54.099Z,9.14
2019-03-13T11:48:38.943Z,9.72
2019-03-13T11:51:15.471Z,9.83
2019-03-13T11:54:34.144Z,9.13
2019-03-13T12:02:42.749Z,9.92
2019-03-13T12:05:14.008Z,9.46
2019-03-13T12:07:49.614Z,10.43
2019-03-13T12:10:19.791Z,10.39
2019-03-13T12:12:55.662Z,10.85
2019-03-13T12:15:25.839Z,10.63
2019-03-13T12:17:56.040Z,10.92
2019-03-13T12:20:26.139Z,10.70
2019-03-13T12:22:58.941Z,11.43
2019-03-13T12:25:29.039Z,10.81
2019-03-13T12:28:11.019Z,10.52
2019-03-13T12:30:46.908Z,10.74
2019-03-13T12:33:19.819Z,10.06
2019-03-13T12:35:52.393Z,10.77
2019-03-13T12:38:28.406Z,11.02
2019-03-13T12:40:58.679Z,10.67
2019-03-13T12:43:44.911Z,10.20
2019-03-13T12:46:31.382Z,10.45
2019-03-13T12:49:01.500Z,10.25
2019-03-13T12:51:37.085Z,10.08
2019-03-13T12:54:07.367Z,10.20
2019-03-13T12:56:45.956Z,10.25
2019-03-13T12:59:16.128Z,10.59
2019-03-13T13:01:52.231Z,10.91
2019-03-13T13:04:25.576Z,10.85
2019-03-13T13:07:04.357Z,10.45
2019-03-13T13:09:46.820Z,9.92
2019-03-13T13:12:19.659Z,9.76
2019-03-13T13:14:55.639Z,9.75
2019-03-13T13:17:31.852Z,10.43
2019-03-13T13:20:00.403Z,10.66
2019-03-13T13:22:28.936Z,10.89
2019-03-13T13:24:57.539Z,10.52
2019-03-13T13:27:26.034Z,10.34
2019-03-13T13:29:54.720Z,10.28
2019-03-13T13:32:24.647Z,9.78
2019-03-13T13:34:53.097Z,10.19
2019-03-13T13:37:21.657Z,10.36
2019-03-13T13:39:50.286Z,10.09
2019-03-13T13:42:18.901Z,10.05
2019-03-13T13:44:47.424Z,10.75
2019-03-13T13:47:15.887Z,10.99
2019-03-13T13:49:58.884Z,11.05
2019-03-13T13:52:16.884Z,10.74
2019-03-13T13:54:45.389Z,10.00
2019-03-13T13:57:13.991Z,10.53
2019-03-13T13:59:42.554Z,10.63
2019-03-13T14:02:11.049Z,10.20
2019-03-13T14:04:39.513Z,10.17
2019-03-13T14:07:08.024Z,10.47
2019-03-13T14:09:36.567Z,10.42
2019-03-13T14:12:05.276Z,10.21
2019-03-13T14:14:33.755Z,10.49
2019-03-13T14:17:02.224Z,10.47
2019-03-13T14:19:30.703Z,11.02
2019-03-13T14:21:59.158Z,10.41
2019-03-13T14:24:27.635Z,10.66
2019-03-13T14:26:56.115Z,10.27
2019-03-13T14:29:24.590Z,10.23
2019-03-13T14:31:53.364Z,9.88
2019-03-13T14:34:21.916Z,10.02
2019-03-13T14:36:50.435Z,10.51
2019-03-13T14:39:18.978Z,10.53
2019-03-13T14:41:47.589Z,10.86
2019-03-13T14:44:16.053Z,11.07
2019-03-13T14:46:44.660Z,10.83
2019-03-13T14:49:13.195Z,10.81
2019-03-13T14:51:41.710Z,10.54
2019-03-13T14:54:11.763Z,10.47
2019-03-13T14:56:40.263Z,10.87
2019-03-13T14:59:10.033Z,10.95
2019-03-13T15:01:38.494Z,10.37
2019-03-13T15:04:08.069Z,10.42
2019-03-13T15:06:38.750Z,10.09
2019-03-13T15:09:06.869Z,9.65
2019-03-13T15:11:35.348Z,9.43
2019-03-13T15:14:04.613Z,9.91
2019-03-13T15:16:33.115Z,9.70
2019-03-13T15:19:01.603Z,10.23
2019-03-13T15:21:30.060Z,10.04
2019-03-13T15:23:58.513Z,10.08
2019-03-13T15:26:27.085Z,9.70
2019-03-13T15:28:55.553Z,10.37
2019-03-13T15:31:24.059Z,10.76
2019-03-13T15:33:52.535Z,10.51
2019-03-13T15:36:21.020Z,10.59
2019-03-13T15:38:49.513Z,10.12
2019-03-13T15:41:17.999Z,9.72
2019-03-13T15:43:47.950Z,10.18
2019-03-13T15:46:16.453Z,10.26
2019-03-13T15:48:47.654Z,10.30
2019-03-13T15:51:16.132Z,10.97
2019-03-13T15:53:44.664Z,10.75
2019-03-13T15:56:13.177Z,10.69
2019-03-13T15:58:41.650Z,10.51
2019-03-13T16:01:10.190Z,10.21
2019-03-13T16:03:38.667Z,10.40
2019-03-13T16:06:07.169Z,10.44
2019-03-13T16:08:35.633Z,10.20
2019-03-13T16:11:04.401Z,9.92
2019-03-13T16:13:32.854Z,9.66
2019-03-13T16:16:01.668Z,9.74
2019-03-13T16:18:30.132Z,9.48
2019-03-13T16:20:58.613Z,9.56
2019-03-13T16:23:27.131Z,9.57
2019-03-13T16:25:55.869Z,9.52
2019-03-13T16:28:24.469Z,9.37
2019-03-13T16:30:54.567Z,9.14
2019-03-13T16:33:23.127Z,9.04
2019-03-13T16:35:51.606Z,9.25
2019-03-13T16:38:20.079Z,9.50
2019-03-13T16:40:48.623Z,9.10
2019-03-13T16:43:18.378Z,8.76
2019-03-13T16:45:46.928Z,8.91
2019-03-13T16:48:15.474Z,9.12
2019-03-13T16:50:46.404Z,9.22
2019-03-13T16:53:14.907Z,9.64
2019-03-13T16:55:43.378Z,9.19
2019-03-13T16:58:11.879Z,8.91
2019-03-13T17:00:40.533Z,8.62
2019-03-13T17:03:09.071Z,8.77
2019-03-13T17:05:37.582Z,8.48
2019-03-13T17:08:07.472Z,8.70
2019-03-13T17:10:35.980Z,8.31
2019-03-13T17:13:05.683Z,8.51
2019-03-13T17:15:34.711Z,8.73
2019-03-13T17:18:05.178Z,8.72
2019-03-13T17:20:39.396Z,8.84
2019-03-13T17:23:07.906Z,9.06
2019-03-13T17:25:36.621Z,8.89
2019-03-13T17:28:06.046Z,8.59
2019-03-13T17:30:34.714Z,8.90
2019-03-13T17:33:03.169Z,8.54
2019-03-13T17:35:31.815Z,8.33
2019-03-13T17:38:00.356Z,7.99
2019-03-13T17:40:30.677Z,7.86
2019-03-13T17:42:59.170Z,7.47
2019-03-13T17:45:27.809Z,7.75
2019-03-13T17:47:56.363Z,7.39
2019-03-13T17:50:25.743Z,7.37
2019-03-13T17:52:54.377Z,7.38
2019-03-13T17:55:24.264Z,7.25
2019-03-13T17:57:52.962Z,7.13
2019-03-13T18:00:31.844Z,7.38
2019-03-13T18:03:00.472Z,7.35
2019-03-13T18:05:29.004Z,7.41
2019-03-13T18:07:57.502Z,7.14
2019-03-13T18:10:25.983Z,6.80
2019-03-13T18:12:54.545Z,6.69
2019-03-13T18:15:23.113Z,6.92
2019-03-13T18:17:51.711Z,6.72
2019-03-13T18:20:24.817Z,6.47
2019-03-13T18:22:53.512Z,6.73
2019-03-13T18:25:22.184Z,6.56
2019-03-13T18:27:50.831Z,6.59
2019-03-13T18:30:33.625Z,6.60
2019-03-13T18:33:02.260Z,6.07
2019-03-13T18:35:30.976Z,6.18
2019-03-13T18:37:59.611Z,5.77
2019-03-13T18:40:28.151Z,5.64
2019-03-13T18:42:56.785Z,5.46
2019-03-13T18:45:32.430Z,5.20
2019-03-13T18:48:00.981Z,5.66
2019-03-13T18:50:30.105Z,5.86
2019-03-13T18:52:58.651Z,5.49
2019-03-13T18:55:37.022Z,5.49
2019-03-13T18:58:06.414Z,5.89
2019-03-13T19:00:36.020Z,6.31
2019-03-13T19:03:06.843Z,6.58
2019-03-13T19:05:36.787Z,6.04
2019-03-13T19:08:06.935Z,6.25
2019-03-13T19:10:35.685Z,5.99
2019-03-13T19:13:06.255Z,5.92
2019-03-13T19:15:34.974Z,6.04
2019-03-13T19:18:03.586Z,6.01
2019-03-13T19:20:32.196Z,6.04
2019-03-13T19:23:01.132Z,6.44
2019-03-13T19:25:29.937Z,6.75
2019-03-13T19:27:58.664Z,6.94
2019-03-13T19:30:31.827Z,6.56
2019-03-13T19:33:01.174Z,6.41
2019-03-13T19:35:29.843Z,6.03
2019-03-13T19:38:01.169Z,5.91
2019-03-13T19:40:29.880Z,6.27
2019-03-13T19:42:58.377Z,6.78
2019-03-13T19:45:41.550Z,6.60
2019-03-13T19:48:10.416Z,6.64
2019-03-13T19:50:39.044Z,6.57
2019-03-13T19:53:07.887Z,6.75
2019-03-13T19:55:36.554Z,6.55
2019-03-13T19:58:06.069Z,6.25
2019-03-13T20:00:34.681Z,5.93
2019-03-13T20:03:06.230Z,5.91
2019-03-13T20:05:44.681Z,6.16
2019-03-13T20:08:05.377Z,6.31
2019-03-13T20:10:34.212Z,6.58
2019-03-13T20:13:02.899Z,6.40
2019-03-13T20:15:32.998Z,6.50
2019-03-13T20:18:01.687Z,6.46
2019-03-13T20:20:30.392Z,6.75
2019-03-13T20:23:04.635Z,6.57
2019-03-13T20:25:33.434Z,6.45
2019-03-13T20:28:02.121Z,6.52
2019-03-13T20:30:30.755Z,6.40
2019-03-13T20:32:59.457Z,6.19
2019-03-13T20:35:28.134Z,5.86
2019-03-13T20:37:56.873Z,5.69
2019-03-13T20:40:26.558Z,5.82
2019-03-13T20:42:55.287Z,5.86
2019-03-13T20:45:26.904Z,5.96
2019-03-13T20:47:55.743Z,6.38
2019-03-13T20:50:36.097Z,6.67
2019-03-13T20:52:54.853Z,6.85
2019-03-13T20:55:23.989Z,7.03
2019-03-13T20:57:52.564Z,7.33
2019-03-13T21:00:25.528Z,7.55
2019-03-13T21:02:55.140Z,7.30
2019-03-13T21:05:24.142Z,7.42
2019-03-13T21:07:53.153Z,7.55
2019-03-13T21:10:21.978Z,7.29
2019-03-13T21:12:50.638Z,7.51
2019-03-13T21:15:21.777Z,7.54
2019-03-13T21:17:50.391Z,7.27
2019-03-13T21:20:19.465Z,7.41
2019-03-13T21:22:47.939Z,7.54
2019-03-13T21:25:20.887Z,7.30
2019-03-13T21:27:49.537Z,7.14
2019-03-13T21:30:26.246Z,6.75
2019-03-13T21:32:54.800Z,6.47
2019-03-13T21:35:24.004Z,6.25
2019-03-13T21:37:52.683Z,6.34
2019-03-13T21:40:26.367Z,6.50
2019-03-13T21:42:55.488Z,6.69
2019-03-13T21:45:25.975Z,6.82
2019-03-13T21:47:54.583Z,6.63
2019-03-13T21:50:23.554Z,6.52
2019-03-13T21:52:52.361Z,6.31
2019-03-13T21:55:20.925Z,6.06
2019-03-13T21:57:51.935Z,6.09
2019-03-13T22:00:27.542Z,5.85
2019-03-13T22:02:56.469Z,5.67
2019-03-13T22:05:27.048Z,5.61
2019-03-13T22:07:56.199Z,5.44
2019-03-13T22:10:24.863Z,5.81
2019-03-13T22:12:53.414Z,5.76
2019-03-13T22:15:23.117Z,5.93
2019-03-13T22:17:51.762Z,5.94
2019-03-13T22:20:20.677Z,5.33
2019-03-13T22:22:49.326Z,5.31
2019-03-13T22:25:19.707Z,5.36
2019-03-13T22:27:48.445Z,5.14
2019-03-13T22:30:19.150Z,5.19
2019-03-13T22:32:47.831Z,5.47
2019-03-13T22:35:16.427Z,5.25
2019-03-13T22:37:44.977Z,5.05
2019-03-13T22:40:14.908Z,5.50
2019-03-13T22:42:43.386Z,5.60
2019-03-13T22:45:16.945Z,5.49
2019-03-13T22:47:45.489Z,5.34
2019-03-13T22:50:24.914Z,5.54
2019-03-13T22:52:53.521Z,5.57
2019-03-13T22:55:22.133Z,5.43
2019-03-13T22:57:50.590Z,5.61
2019-03-13T23:00:41.631Z,5.59
2019-03-13T23:03:10.837Z,5.41
2019-03-13T23:05:39.411Z,5.49
2019-03-13T23:08:07.949Z,5.59
2019-03-13T23:10:36.983Z,5.78
2019-03-13T23:13:05.611Z,5.49
2019-03-13T23:15:34.151Z,5.62
2019-03-13T23:18:02.652Z,5.50
2019-03-13T23:20:31.119Z,5.50
2019-03-13T23:22:59.584Z,5.68
2019-03-13T23:25:28.329Z,5.41
2019-03-13T23:27:56.804Z,5.45
2019-03-13T23:30:25.340Z,5.33
2019-03-13T23:32:53.838Z,5.69
2019-03-13T23:35:22.377Z,5.49
2019-03-13T23:37:50.857Z,5.51
2019-03-13T23:40:19.334Z,5.71
2019-03-13T23:42:47.795Z,5.45
2019-03-13T23:45:16.430Z,5.29
2019-03-13T23:47:44.896Z,5.44
2019-03-13T23:50:14.540Z,5.57
2019-03-13T23:52:43.023Z,5.89
2019-03-13T23:55:11.954Z,6.17
2019-03-13T23:57:40.418Z,5.72
